Time;durP1;ratioP1;P1;durP2;ratioP2;P2;SDS_P1;SDS_P2;PMS_P1;PMS_P2;Temp;Humidity;BMP_temperature;BMP_pressure;BME280_temperature;BME280_humidity;BME280_pressure;Samples;Min_cycle;Max_cycle;Signal;HPM_P1;HPM_P2
2021/11/20 00:01:54;;;;;;;21.25;12.30;;;;;;;9.10;77.17;101046.78;5036573;28;20132;-56
2021/11/20 00:04:20;;;;;;;17.38;11.20;;;;;;;9.08;76.78;101053.97;5036716;28;20034;-63
2021/11/20 00:06:48;;;;;;;15.63;10.25;;;;;;;9.09;77.94;101055.59;5037307;28;20104;-59
2021/11/20 00:09:17;;;;;;;15.70;10.98;;;;;;;9.04;77.07;101055.88;5025420;28;20026;-53
2021/11/20 00:11:51;;;;;;;15.32;10.18;;;;;;;8.96;77.47;101050.16;5035550;28;20045;-63
2021/11/20 00:14:17;;;;;;;15.63;10.30;;;;;;;8.97;77.73;101063.00;5036418;28;20079;-61
2021/11/20 00:16:45;;;;;;;15.00;10.30;;;;;;;9.06;78.45;101050.72;5036282;28;20025;-57
2021/11/20 00:19:11;;;;;;;16.80;11.30;;;;;;;9.14;78.23;101060.88;5036293;28;20104;-62
2021/11/20 00:21:45;;;;;;;16.70;10.35;;;;;;;9.19;77.31;101060.53;5035974;28;20040;-62
2021/11/20 00:24:25;;;;;;;16.50;9.95;;;;;;;9.20;77.47;101054.56;5034053;28;20479;-61
2021/11/20 00:26:51;;;;;;;13.75;9.88;;;;;;;9.21;77.39;101046.94;5031576;28;20014;-63
2021/11/20 00:31:47;;;;;;;18.33;10.40;;;;;;;9.29;77.90;101057.06;5036400;28;20032;-57
2021/11/20 00:34:18;;;;;;;16.60;11.18;;;;;;;9.30;77.91;101055.88;5036367;28;20045;-64
2021/11/20 00:36:44;;;;;;;16.05;10.05;;;;;;;9.28;77.36;101049.84;5035508;28;20045;-64
2021/11/20 00:39:12;;;;;;;14.07;9.38;;;;;;;9.28;77.98;101055.47;5036056;28;20079;-64
2021/11/20 00:41:38;;;;;;;12.60;9.43;;;;;;;9.29;77.81;101055.09;5035846;28;20033;-63
2021/11/20 00:44:03;;;;;;;17.40;10.38;;;;;;;9.26;77.17;101058.66;5035887;28;20025;-62
2021/11/20 00:46:31;;;;;;;17.85;10.93;;;;;;;9.24;77.72;101057.41;5035853;28;20322;-59
2021/11/20 00:48:58;;;;;;;15.55;10.43;;;;;;;9.26;78.35;101052.22;5035633;28;20320;-61
2021/11/20 00:51:26;;;;;;;17.30;10.57;;;;;;;9.27;77.82;101049.03;5035587;28;20030;-62
2021/11/20 00:53:53;;;;;;;16.45;10.25;;;;;;;9.27;78.40;101043.44;5035956;28;20017;-62
2021/11/20 00:56:21;;;;;;;14.48;9.73;;;;;;;9.32;78.19;101047.94;5034902;28;20101;-64
2021/11/20 00:58:47;;;;;;;14.93;10.55;;;;;;;9.32;78.33;101050.75;5034416;28;20430;-57
2021/11/20 01:01:15;;;;;;;14.27;10.45;;;;;;;9.30;77.62;101045.47;5035538;28;20026;-63
2021/11/20 01:03:41;;;;;;;17.55;10.30;;;;;;;9.31;77.63;101046.28;5035771;28;20036;-62
2021/11/20 01:06:06;;;;;;;14.60;10.60;;;;;;;9.28;78.27;101031.03;5035059;28;20033;-57
2021/11/20 01:08:36;;;;;;;15.73;9.82;;;;;;;9.25;78.24;101033.78;5035677;28;20021;-63
2021/11/20 01:11:15;;;;;;;13.93;9.45;;;;;;;9.20;78.05;101036.91;5035390;28;20025;-63
2021/11/20 01:13:40;;;;;;;14.93;9.52;;;;;;;9.17;78.93;101030.06;5035660;28;20436;-62
2021/11/20 01:16:08;;;;;;;15.07;9.57;;;;;;;9.19;78.80;101038.91;5035258;28;20030;-54
2021/11/20 01:18:34;;;;;;;13.55;9.38;;;;;;;9.19;79.02;101021.28;5035344;28;20072;-64
2021/11/20 01:21:19;;;;;;;14.52;9.60;;;;;;;9.21;78.46;101021.69;5035188;28;20116;-48
2021/11/20 01:23:46;;;;;;;15.88;10.32;;;;;;;9.23;78.55;101019.31;5024340;28;20022;-57
2021/11/20 01:26:13;;;;;;;18.67;10.20;;;;;;;9.24;78.52;101023.75;5035020;28;20109;-57
2021/11/20 01:28:41;;;;;;;14.10;9.75;;;;;;;9.25;78.73;101008.53;5035751;28;20024;-64
2021/11/20 01:31:07;;;;;;;13.52;9.60;;;;;;;9.27;78.12;101008.97;5035631;28;20112;-63
2021/11/20 01:33:34;;;;;;;14.93;10.07;;;;;;;9.28;78.25;101007.78;5035283;28;20404;-63
2021/11/20 01:36:00;;;;;;;15.00;10.25;;;;;;;9.27;77.92;101006.16;5034896;28;20409;-63
2021/11/20 01:38:26;;;;;;;17.25;11.32;;;;;;;9.21;78.39;101011.28;5035078;28;20067;-52
2021/11/20 01:40:52;;;;;;;16.27;10.45;;;;;;;9.19;78.61;101010.06;5035475;28;20421;-63
2021/11/20 01:43:18;;;;;;;15.25;8.85;;;;;;;9.21;78.95;101002.88;5035162;28;20056;-62
2021/11/20 01:45:49;;;;;;;13.73;9.60;;;;;;;9.25;78.57;101008.53;5035111;28;20038;-63
2021/11/20 01:48:42;;;;;;;14.27;10.30;;;;;;;9.28;78.61;101008.56;5035274;28;20056;-53
2021/11/20 01:51:17;;;;;;;13.70;9.18;;;;;;;9.29;78.48;101007.38;5020852;28;20017;-59
2021/11/20 01:54:04;;;;;;;14.88;9.48;;;;;;;9.30;78.59;101005.41;5032488;28;20030;-54
2021/11/20 01:56:57;;;;;;;15.30;9.60;;;;;;;9.23;78.03;101003.31;5034930;28;20022;-49
2021/11/20 01:59:30;;;;;;;14.82;9.25;;;;;;;9.19;78.92;100999.63;5023014;28;20037;-62
2021/11/20 02:02:37;;;;;;;14.25;9.57;;;;;;;9.18;78.87;100997.22;5034903;28;20041;-62
2021/11/20 02:05:31;;;;;;;16.88;10.25;;;;;;;9.15;78.48;100990.38;4990386;28;20023;-48
2021/11/20 02:08:22;;;;;;;13.70;9.90;;;;;;;9.11;78.61;100980.28;5026021;28;20384;-60
2021/11/20 02:11:02;;;;;;;16.05;9.43;;;;;;;9.13;78.66;100975.91;5032654;28;20030;-58
2021/11/20 02:13:31;;;;;;;12.85;9.60;;;;;;;9.11;78.95;100980.28;5026584;28;20029;-53
2021/11/20 02:16:06;;;;;;;16.15;9.40;;;;;;;9.07;78.99;100979.44;5038671;28;20037;-57
2021/11/20 02:18:36;;;;;;;14.45;9.27;;;;;;;9.08;78.87;100975.44;5038575;28;20363;-53
2021/11/20 02:21:10;;;;;;;14.32;10.00;;;;;;;9.08;79.12;100978.25;5038507;28;20040;-63
2021/11/20 02:23:35;;;;;;;13.23;9.68;;;;;;;9.07;78.65;100985.03;5037191;28;20051;-57
2021/11/20 02:26:02;;;;;;;13.87;9.37;;;;;;;9.03;79.12;100978.53;5037777;28;20101;-48
2021/11/20 02:28:28;;;;;;;13.35;10.00;;;;;;;9.02;79.83;100982.53;5038597;28;20033;-63
2021/11/20 02:30:53;;;;;;;15.82;10.60;;;;;;;9.00;79.38;100977.31;5038260;28;20026;-57
2021/11/20 02:33:22;;;;;;;13.93;9.90;;;;;;;9.01;79.18;100961.28;5038037;28;20056;-62
2021/11/20 02:36:04;;;;;;;14.02;9.60;;;;;;;8.98;79.02;100960.88;5024572;28;20018;-62
2021/11/20 02:38:40;;;;;;;15.52;10.25;;;;;;;8.98;79.23;100966.47;5038428;28;20045;-59
2021/11/20 02:41:08;;;;;;;17.10;10.98;;;;;;;8.97;79.47;100959.25;5038014;28;20017;-63
2021/11/20 02:43:37;;;;;;;17.95;12.65;;;;;;;8.98;79.17;100960.88;5038312;28;20037;-62
2021/11/20 02:46:04;;;;;;;17.42;12.20;;;;;;;8.91;78.82;100955.16;5037679;28;20046;-62
2021/11/20 02:48:29;;;;;;;19.17;12.63;;;;;;;8.85;79.17;100953.06;5037926;28;20112;-62
2021/11/20 02:51:23;;;;;;;18.88;12.77;;;;;;;8.80;79.93;100959.81;5038104;28;20100;-51
2021/11/20 02:53:50;;;;;;;18.55;12.95;;;;;;;8.78;80.18;100962.19;5032883;28;20045;-60
2021/11/20 02:56:19;;;;;;;20.88;13.07;;;;;;;8.79;80.69;100957.38;5027960;28;20032;-62
2021/11/20 02:58:45;;;;;;;19.40;13.40;;;;;;;8.80;80.69;100962.63;5037823;28;20082;-62
2021/11/20 03:01:18;;;;;;;23.77;13.60;;;;;;;8.77;79.77;100962.56;5037467;28;20356;-52
2021/11/20 03:03:44;;;;;;;23.08;13.85;;;;;;;8.74;80.04;100966.91;5038023;28;20471;-62
2021/11/20 03:06:09;;;;;;;21.67;14.00;;;;;;;8.66;80.07;100965.97;5037715;28;20021;-53
2021/11/20 03:08:35;;;;;;;19.60;13.27;;;;;;;8.58;80.33;100966.25;5037811;28;20030;-57
2021/11/20 03:11:01;;;;;;;20.15;13.77;;;;;;;8.57;80.51;100956.22;5037653;28;20018;-53
2021/11/20 03:13:26;;;;;;;21.73;14.45;;;;;;;8.57;80.32;100956.22;5037708;28;20060;-62
2021/11/20 03:15:52;;;;;;;22.00;13.43;;;;;;;8.57;79.99;100959.03;5034565;28;20037;-58
2021/11/20 03:18:17;;;;;;;20.02;12.63;;;;;;;8.63;80.42;100954.72;5036792;28;20305;-63
2021/11/20 03:20:44;;;;;;;21.58;13.73;;;;;;;8.65;79.76;100955.16;5035589;28;20061;-60
2021/11/20 03:23:34;;;;;;;19.25;13.52;;;;;;;8.61;79.72;100954.28;5037188;28;20317;-57
2021/11/20 03:26:00;;;;;;;18.20;12.85;;;;;;;8.57;80.03;100956.22;5037297;28;20045;-56
2021/11/20 03:28:25;;;;;;;24.08;14.02;;;;;;;8.55;80.30;100953.00;5037291;28;20412;-61
2021/11/20 03:30:51;;;;;;;17.33;12.55;;;;;;;8.48;80.28;100955.66;5037115;28;20021;-50
2021/11/20 03:33:18;;;;;;;18.25;12.85;;;;;;;8.45;80.39;100948.00;5037102;28;20038;-52
2021/11/20 03:35:44;;;;;;;22.15;12.93;;;;;;;8.40;80.45;100945.53;5026119;28;20023;-63
2021/11/20 03:38:11;;;;;;;17.15;11.88;;;;;;;8.38;80.12;100956.31;5037295;28;20021;-62
2021/11/20 03:40:37;;;;;;;18.85;12.70;;;;;;;8.40;80.79;100956.72;5037146;28;20028;-63
2021/11/20 03:43:03;;;;;;;16.05;11.90;;;;;;;8.39;80.38;100949.50;5035935;28;20022;-63
2021/11/20 03:45:31;;;;;;;17.15;12.55;;;;;;;8.39;80.17;100949.50;5036525;28;20076;-63
2021/11/20 03:47:57;;;;;;;17.05;12.13;;;;;;;8.42;80.73;100951.56;5036947;28;20029;-54
2021/11/20 03:50:22;;;;;;;16.88;12.25;;;;;;;8.44;80.56;100947.19;5036673;28;20021;-62
2021/11/20 03:52:48;;;;;;;17.85;12.40;;;;;;;8.45;80.19;100950.81;5037045;28;20026;-46
2021/11/20 03:55:17;;;;;;;18.30;13.27;;;;;;;8.42;79.92;100959.97;5031127;28;20085;-60
2021/11/20 03:57:44;;;;;;;16.35;12.90;;;;;;;8.43;80.84;100955.97;5035513;28;20029;-63
2021/11/20 04:00:14;;;;;;;19.23;12.38;;;;;;;8.41;80.07;100952.75;5035454;28;20025;-63
2021/11/20 04:02:39;;;;;;;16.23;12.73;;;;;;;8.40;80.37;100945.53;5036697;28;20807;-56
2021/11/20 04:05:06;;;;;;;25.40;14.50;;;;;;;8.37;79.94;100947.09;5036426;28;20136;-54
2021/11/20 04:07:32;;;;;;;17.92;12.23;;;;;;;8.35;79.80;100952.25;5036583;28;20032;-51
2021/11/20 04:09:57;;;;;;;15.98;12.23;;;;;;;8.34;80.17;100959.03;5036583;28;20321;-57
2021/11/20 04:12:22;;;;;;;16.30;11.95;;;;;;;8.31;80.25;100960.56;5036553;28;20116;-62
2021/11/20 04:14:48;;;;;;;18.98;11.60;;;;;;;8.32;79.76;100962.19;5036192;28;20036;-63
2021/11/20 04:17:13;;;;;;;16.08;11.50;;;;;;;8.30;79.94;100958.16;5036416;28;20036;-62
2021/11/20 04:19:39;;;;;;;18.60;10.98;;;;;;;8.25;79.68;100950.88;5035098;28;20018;-62
2021/11/20 04:22:05;;;;;;;14.80;10.00;;;;;;;8.22;79.87;100957.22;5036338;28;20028;-62
2021/11/20 04:24:30;;;;;;;14.07;11.18;;;;;;;8.17;79.77;100949.09;5036264;28;20372;-62
2021/11/20 04:26:56;;;;;;;16.67;10.95;;;;;;;8.12;79.96;100960.63;5036318;28;20075;-56
2021/11/20 04:29:22;;;;;;;14.63;10.55;;;;;;;8.12;80.02;100955.03;5035959;28;20415;-62
2021/11/20 04:31:48;;;;;;;13.40;10.57;;;;;;;8.11;80.33;100950.59;5035749;28;20040;-49
2021/11/20 04:34:15;;;;;;;13.82;9.65;;;;;;;8.14;80.74;100955.47;5030975;28;20025;-62
2021/11/20 04:36:40;;;;;;;12.77;9.65;;;;;;;8.21;80.71;100944.38;5030025;28;20025;-62
2021/11/20 04:39:06;;;;;;;13.43;10.00;;;;;;;8.27;80.70;100968.09;5036147;28;20143;-47
2021/11/20 04:41:32;;;;;;;15.50;11.80;;;;;;;8.29;80.46;100960.13;5036183;28;20021;-61
2021/11/20 04:43:58;;;;;;;22.92;13.80;;;;;;;8.29;80.26;100957.34;5035243;28;20033;-62
2021/11/20 04:46:24;;;;;;;24.13;16.02;;;;;;;8.32;80.35;100953.78;5035799;28;20064;-53
2021/11/20 04:48:51;;;;;;;18.73;14.00;;;;;;;8.31;80.30;100954.97;5035840;28;20067;-63
2021/11/20 04:51:18;;;;;;;15.65;11.60;;;;;;;8.29;80.04;100957.34;5035771;28;20039;-57
2021/11/20 04:53:46;;;;;;;16.38;11.07;;;;;;;8.29;80.22;100951.75;5035798;28;20060;-62
2021/11/20 04:56:13;;;;;;;13.80;10.77;;;;;;;8.30;79.84;100947.75;4842276;28;5001603;-62
2021/11/20 04:58:40;;;;;;;12.38;9.82;;;;;;;8.28;80.11;100938.91;5035482;28;20064;-63
2021/11/20 05:01:07;;;;;;;12.27;9.77;;;;;;;8.26;79.95;100949.69;5035569;28;20028;-60
2021/11/20 05:03:33;;;;;;;12.40;10.63;;;;;;;8.27;79.97;100951.31;5034764;28;20346;-61
2021/11/20 05:05:58;;;;;;;22.48;13.85;;;;;;;8.26;80.16;100954.47;5035581;28;20368;-62
2021/11/20 05:08:25;;;;;;;25.95;15.02;;;;;;;8.21;79.73;100957.56;5035964;28;20056;-62
2021/11/20 05:10:52;;;;;;;22.83;13.45;;;;;;;8.20;80.63;100958.75;5035645;28;20027;-63
2021/11/20 05:13:20;;;;;;;18.08;11.63;;;;;;;8.17;80.40;100971.50;5035198;28;20495;-62
2021/11/20 05:15:48;;;;;;;18.92;12.15;;;;;;;8.12;80.01;100963.41;5035609;28;20034;-49
2021/11/20 05:18:14;;;;;;;14.10;10.50;;;;;;;8.11;80.33;100972.19;5035253;28;20325;-63
2021/11/20 05:20:40;;;;;;;15.52;10.45;;;;;;;8.11;80.23;100977.78;5035419;28;20056;-62
2021/11/20 05:23:06;;;;;;;15.95;10.77;;;;;;;8.11;80.41;100977.78;5035103;28;20037;-62
2021/11/20 05:25:32;;;;;;;16.40;10.10;;;;;;;8.06;79.70;100968.53;5033475;28;20025;-62
2021/11/20 05:27:58;;;;;;;13.50;9.60;;;;;;;8.01;80.12;100973.63;5032481;28;20309;-60
2021/11/20 05:30:32;;;;;;;16.42;10.13;;;;;;;7.97;79.95;100969.94;5035201;28;20109;-63
2021/11/20 05:33:00;;;;;;;12.90;9.30;;;;;;;7.92;80.24;100959.84;5035287;28;20049;-62
2021/11/20 05:35:45;;;;;;;14.05;10.52;;;;;;;7.88;80.25;100958.16;5023816;28;20025;-62
2021/11/20 05:38:11;;;;;;;23.13;15.73;;;;;;;7.84;80.38;100946.91;5035175;28;20402;-62
2021/11/20 05:40:37;;;;;;;19.88;12.98;;;;;;;7.85;80.58;100947.72;5034998;28;20024;-54
2021/11/20 05:43:06;;;;;;;14.63;11.60;;;;;;;7.85;81.04;100945.72;5037265;28;20108;-57
2021/11/20 05:45:34;;;;;;;14.60;11.18;;;;;;;7.84;81.00;100943.28;5039020;28;20049;-62
2021/11/20 05:48:00;;;;;;;16.48;12.73;;;;;;;7.85;80.56;100947.72;5036400;28;20021;-63
2021/11/20 05:50:27;;;;;;;16.20;11.68;;;;;;;7.84;80.46;100951.69;5037369;28;20040;-62
2021/11/20 05:52:54;;;;;;;13.82;11.40;;;;;;;7.80;80.75;100950.81;5039339;28;20017;-52
2021/11/20 05:55:23;;;;;;;17.10;11.13;;;;;;;7.76;80.51;100950.75;5039039;28;20306;-53
2021/11/20 05:57:49;;;;;;;18.98;11.48;;;;;;;7.78;81.26;100941.97;5038901;28;20033;-63
2021/11/20 06:00:31;;;;;;;15.55;11.68;;;;;;;7.81;80.89;100960.81;5039264;28;20061;-57
2021/11/20 06:02:59;;;;;;;17.08;11.50;;;;;;;7.81;80.87;100958.84;5025102;28;20430;-59
2021/11/20 06:05:25;;;;;;;16.73;11.38;;;;;;;7.85;80.97;100970.09;5039094;28;20021;-63
2021/11/20 06:07:51;;;;;;;25.33;16.05;;;;;;;7.85;80.26;100965.31;5038781;28;20097;-62
2021/11/20 06:10:16;;;;;;;27.20;16.70;;;;;;;7.84;80.25;100966.50;5038552;28;20108;-62
2021/11/20 06:12:42;;;;;;;26.25;14.43;;;;;;;7.87;81.28;100990.13;5038828;28;20025;-62
2021/11/20 06:15:08;;;;;;;16.58;11.55;;;;;;;7.87;81.02;100992.94;5038746;28;20051;-61
2021/11/20 06:17:33;;;;;;;16.75;11.77;;;;;;;7.84;80.84;100982.47;5037327;28;20420;-65
2021/11/20 06:19:58;;;;;;;19.45;12.18;;;;;;;7.84;81.59;100979.69;5033266;28;20044;-55
2021/11/20 06:22:24;;;;;;;17.75;12.98;;;;;;;7.87;81.73;100984.53;5032467;28;20079;-54
2021/11/20 06:24:51;;;;;;;19.17;12.15;;;;;;;7.88;81.54;100983.34;5038132;28;20072;-62
2021/11/20 06:27:17;;;;;;;31.08;18.17;;;;;;;7.85;81.18;100986.91;5038561;28;20029;-60
2021/11/20 06:29:43;;;;;;;43.38;23.00;;;;;;;7.80;81.30;100984.41;5038433;28;20028;-63
2021/11/20 06:32:08;;;;;;;44.38;23.95;;;;;;;7.78;81.68;100981.97;5038293;28;20029;-62
2021/11/20 06:34:34;;;;;;;55.25;29.40;;;;;;;7.82;82.30;100970.84;5030416;28;20032;-63
2021/11/20 06:36:59;;;;;;;40.33;22.63;;;;;;;7.90;82.87;100993.00;5034389;28;20174;-63
2021/11/20 06:39:24;;;;;;;29.02;17.48;;;;;;;7.97;82.47;101006.34;5038254;28;20040;-62
2021/11/20 06:41:52;;;;;;;29.30;17.77;;;;;;;8.06;82.44;100985.31;5037035;28;20021;-63
2021/11/20 06:44:17;;;;;;;21.50;14.13;;;;;;;8.23;81.81;100991.63;5037060;28;20128;-55
2021/11/20 06:46:43;;;;;;;17.90;12.05;;;;;;;8.38;81.50;101001.13;5030527;28;20119;-65
2021/11/20 06:49:08;;;;;;;16.73;11.23;;;;;;;8.52;80.60;100993.78;5037757;28;20055;-49
2021/11/20 06:51:33;;;;;;;21.25;14.05;;;;;;;8.63;80.67;101011.59;5038184;28;20025;-56
2021/11/20 06:53:59;;;;;;;36.75;19.13;;;;;;;8.76;79.90;101019.78;5036418;28;20038;-63
2021/11/20 06:56:30;;;;;;;23.73;13.55;;;;;;;8.87;80.36;101003.97;5030909;28;20033;-55
2021/11/20 06:59:16;;;;;;;20.60;10.83;;;;;;;9.01;79.31;101011.78;5037887;28;20029;-63
2021/11/20 07:01:43;;;;;;;19.50;12.48;;;;;;;9.17;80.53;101018.03;5037858;28;20283;-59
2021/11/20 07:04:12;;;;;;;17.15;12.77;;;;;;;9.28;79.37;101010.56;5037909;28;20312;-63
2021/11/20 07:06:40;;;;;;;24.23;15.50;;;;;;;9.40;78.79;101015.16;5037897;28;20414;-55
2021/11/20 07:09:06;;;;;;;32.15;21.30;;;;;;;9.53;79.08;101020.16;5037441;28;20252;-47
2021/11/20 07:11:31;;;;;;;31.73;18.95;;;;;;;9.67;79.34;101018.75;5037773;28;20029;-50
2021/11/20 07:13:57;;;;;;;26.52;16.77;;;;;;;9.80;78.94;101022.91;5037797;28;20030;-53
2021/11/20 07:16:26;;;;;;;30.08;18.20;;;;;;;9.92;77.74;101014.25;5037278;28;20021;-62
2021/11/20 07:18:52;;;;;;;43.58;23.98;;;;;;;10.04;78.29;101027.19;5037916;28;20083;-54
2021/11/20 07:21:22;;;;;;;35.25;21.20;;;;;;;10.11;77.33;101018.84;5037365;28;20025;-62
2021/11/20 07:23:48;;;;;;;45.03;24.98;;;;;;;10.22;77.00;101022.63;5037316;28;20025;-62
2021/11/20 07:26:14;;;;;;;46.25;24.45;;;;;;;10.33;76.60;101037.59;5037208;28;20109;-55
2021/11/20 07:28:39;;;;;;;64.88;31.40;;;;;;;10.50;77.48;101030.53;5037701;28;20031;-63
2021/11/20 07:31:05;;;;;;;64.63;27.02;;;;;;;10.55;75.21;101030.19;5037271;28;20623;-55
2021/11/20 07:33:32;;;;;;;56.58;26.00;;;;;;;10.64;76.12;101025.03;5037347;28;20104;-63
2021/11/20 07:35:59;;;;;;;34.42;19.15;;;;;;;10.72;75.44;101018.31;5025734;28;20344;-58
2021/11/20 07:38:32;;;;;;;24.02;14.82;;;;;;;10.83;76.29;101019.19;5036893;28;20436;-63
2021/11/20 07:40:57;;;;;;;21.63;14.55;;;;;;;11.00;75.66;101028.97;5037281;28;20036;-62
2021/11/20 07:43:23;;;;;;;26.15;16.17;;;;;;;11.15;75.33;101024.25;5037021;28;20032;-64
2021/11/20 07:45:49;;;;;;;31.98;18.20;;;;;;;11.26;75.05;101019.50;5036744;28;20095;-60
2021/11/20 07:48:18;;;;;;;32.35;19.75;;;;;;;11.39;74.87;101023.59;5036910;28;20022;-64
2021/11/20 07:50:45;;;;;;;31.90;19.92;;;;;;;11.54;74.54;101026.50;5036856;28;20417;-62
2021/11/20 07:53:11;;;;;;;31.67;18.55;;;;;;;11.70;74.21;101024.16;5037021;28;20022;-62
2021/11/20 07:55:37;;;;;;;27.83;17.33;;;;;;;11.73;72.85;101026.19;5029416;28;20030;-63
2021/11/20 07:58:04;;;;;;;24.95;16.35;;;;;;;11.75;73.15;101018.16;5036792;28;20028;-62
2021/11/20 08:00:31;;;;;;;16.42;12.20;;;;;;;11.85;73.24;101027.88;5036862;28;20320;-56
2021/11/20 08:02:57;;;;;;;15.60;10.40;;;;;;;11.93;73.00;101021.06;5036336;28;20108;-62
2021/11/20 08:05:27;;;;;;;24.08;12.13;;;;;;;12.00;73.02;101016.25;5031202;28;20120;-61
2021/11/20 08:07:53;;;;;;;14.45;9.45;;;;;;;12.06;72.26;101016.72;5031735;28;20025;-62
2021/11/20 08:10:19;;;;;;;20.50;11.75;;;;;;;12.09;71.38;101006.66;5036100;28;20064;-62
2021/11/20 08:12:45;;;;;;;18.67;10.98;;;;;;;12.23;72.29;101012.31;5030104;28;20033;-63
2021/11/20 08:15:11;;;;;;;11.73;8.65;;;;;;;12.27;71.01;101016.75;5017207;28;20617;-63
2021/11/20 08:17:37;;;;;;;10.30;7.68;;;;;;;12.35;70.40;101024.03;5019213;28;20033;-59
2021/11/20 08:20:05;;;;;;;17.35;9.95;;;;;;;12.46;70.11;101017.59;5035808;28;20017;-63
2021/11/20 08:22:30;;;;;;;10.82;8.05;;;;;;;12.61;70.15;101022.84;5041223;28;20286;-64
2021/11/20 08:24:55;;;;;;;8.02;6.30;;;;;;;12.67;68.38;101024.06;5036863;28;20021;-64
2021/11/20 08:27:21;;;;;;;8.07;6.75;;;;;;;12.76;69.22;101022.84;5036435;28;20479;-62
2021/11/20 08:29:46;;;;;;;12.45;8.02;;;;;;;12.80;68.21;101026.47;5036356;28;20021;-62
2021/11/20 08:32:12;;;;;;;8.02;6.10;;;;;;;12.87;66.16;101040.56;5036093;28;20083;-63
2021/11/20 08:34:40;;;;;;;9.27;7.05;;;;;;;12.96;67.32;101035.34;5032872;28;20033;-58
2021/11/20 08:37:07;;;;;;;7.95;6.63;;;;;;;13.05;67.10;101027.28;5032095;28;20055;-60
2021/11/20 08:39:33;;;;;;;22.80;6.85;;;;;;;13.10;67.08;101034.53;5028410;28;20032;-60
2021/11/20 08:41:58;;;;;;;36.95;8.35;;;;;;;13.26;67.23;101024.47;5023740;28;20017;-63
2021/11/20 08:44:26;;;;;;;10.45;7.40;;;;;;;13.40;66.55;101025.66;5027698;28;20080;-61
2021/11/20 08:46:52;;;;;;;11.30;6.95;;;;;;;13.51;65.85;101029.25;5031771;28;20049;-61
2021/11/20 08:49:18;;;;;;;10.75;7.93;;;;;;;13.64;65.29;101021.16;5034893;28;20025;-62
2021/11/20 08:51:45;;;;;;;13.43;8.48;;;;;;;13.83;65.21;101015.03;5034672;28;20294;-55
2021/11/20 08:54:11;;;;;;;11.05;7.30;;;;;;;13.93;64.92;101014.97;5030023;28;20021;-52
2021/11/20 08:56:43;;;;;;;10.68;6.30;;;;;;;13.96;63.18;101023.84;5035483;28;20473;-59
2021/11/20 08:59:09;;;;;;;;;;;;;;;14.06;63.88;101029.47;5034643;28;20054;-61
2021/11/20 09:01:39;;;;;;;12.52;6.50;;;;;;;14.21;64.16;101027.34;5031171;28;19936;-62
2021/11/20 09:04:07;;;;;;;10.93;6.70;;;;;;;14.33;62.98;101029.72;5034817;28;20052;-62
2021/11/20 09:06:54;;;;;;;8.88;6.60;;;;;;;14.45;62.40;101017.13;5034991;28;20436;-60
2021/11/20 09:09:26;;;;;;;8.60;5.93;;;;;;;14.62;63.10;101016.22;5034668;28;20450;-63
2021/11/20 09:11:55;;;;;;;7.55;5.97;;;;;;;14.74;60.46;101021.38;5033470;28;20024;-62
2021/11/20 09:14:38;;;;;;;11.93;6.53;;;;;;;14.73;60.05;101021.78;5037956;28;20021;-62
2021/11/20 09:17:05;;;;;;;7.93;6.30;;;;;;;14.80;60.50;101027.41;5034048;28;20053;-63
2021/11/20 09:19:34;;;;;;;10.82;6.57;;;;;;;14.96;60.46;101024.84;5034585;28;20025;-64
2021/11/20 09:22:02;;;;;;;8.35;6.63;;;;;;;15.00;59.35;101019.94;5027484;28;20029;-63
2021/11/20 09:24:30;;;;;;;8.18;6.00;;;;;;;15.10;60.34;101023.91;5034879;28;20030;-58
2021/11/20 09:26:56;;;;;;;8.07;6.45;;;;;;;15.18;59.61;101019.00;5034832;28;20031;-61
2021/11/20 09:29:24;;;;;;;9.27;6.38;;;;;;;15.22;59.20;101017.72;5034806;28;20468;-57
2021/11/20 09:31:50;;;;;;;13.27;7.05;;;;;;;15.28;59.45;101023.72;5034810;28;20037;-62
2021/11/20 09:34:16;;;;;;;11.20;6.85;;;;;;;15.35;58.98;101020.84;5030666;28;20037;-62
2021/11/20 09:36:43;;;;;;;11.07;7.22;;;;;;;15.39;58.55;101007.44;5035256;28;20033;-61
2021/11/20 09:39:12;;;;;;;8.48;6.00;;;;;;;15.41;58.33;101017.13;5015597;28;20034;-62
2021/11/20 09:42:16;;;;;;;9.35;6.88;;;;;;;15.41;58.98;101010.66;5023619;28;20026;-65
2021/11/20 09:44:46;;;;;;;8.77;6.22;;;;;;;15.46;57.73;101004.53;4971908;28;20121;-63
2021/11/20 09:47:28;;;;;;;8.75;6.20;;;;;;;15.58;58.53;101000.34;5009717;28;20022;-63
2021/11/20 09:49:58;;;;;;;9.95;5.88;;;;;;;15.65;57.57;100992.59;5003307;28;20406;-58
2021/11/20 09:52:23;;;;;;;7.35;5.72;;;;;;;15.66;56.92;100996.25;5009333;28;20299;-62
2021/11/20 09:54:53;;;;;;;13.30;6.05;;;;;;;15.67;57.74;100998.66;5002375;28;20053;-62
2021/11/20 09:58:03;;;;;;;11.40;5.57;;;;;;;15.69;57.41;100987.69;5010439;28;20057;-61
2021/11/20 10:01:03;;;;;;;9.48;5.60;;;;;;;15.58;57.37;100989.00;5007312;28;20022;-61
2021/11/20 10:03:35;;;;;;;8.35;5.90;;;;;;;15.56;58.18;100995.09;5003596;28;20022;-61
2021/11/20 10:06:10;;;;;;;9.48;5.35;;;;;;;15.58;57.15;100987.00;5004235;28;20022;-61
2021/11/20 10:08:39;;;;;;;7.63;5.63;;;;;;;15.56;57.78;100986.59;5003828;28;20117;-61
2021/11/20 10:11:08;;;;;;;6.97;5.32;;;;;;;15.66;58.10;100993.41;5001121;28;20022;-61
2021/11/20 10:13:45;;;;;;;10.20;4.60;;;;;;;15.73;57.49;100987.66;4998125;28;20369;-62
2021/11/20 10:16:16;;;;;;;8.27;5.18;;;;;;;15.69;57.32;100987.69;5003977;28;20057;-56
2021/11/20 10:19:14;;;;;;;10.53;5.30;;;;;;;15.60;56.91;100995.88;5002723;28;20121;-61
2021/11/20 10:21:41;;;;;;;7.70;5.28;;;;;;;15.58;55.85;100992.66;5001177;28;20094;-63
2021/11/20 10:24:32;;;;;;;7.28;5.15;;;;;;;15.60;57.14;100980.91;5005582;28;20038;-62
2021/11/20 10:27:42;;;;;;;12.93;7.00;;;;;;;15.70;56.66;100980.81;5003958;28;20116;-62
2021/11/20 10:30:25;;;;;;;7.75;5.70;;;;;;;15.70;57.12;100983.63;5009579;28;20430;-63
2021/11/20 10:33:19;;;;;;;7.95;5.43;;;;;;;15.76;56.58;100981.94;5010820;28;20057;-62
2021/11/20 10:36:10;;;;;;;8.70;5.68;;;;;;;15.80;56.38;100981.06;4984197;28;20038;-62
2021/11/20 10:38:59;;;;;;;7.80;5.63;;;;;;;15.82;56.68;100973.75;4989591;28;20038;-62
2021/11/20 10:41:35;;;;;;;10.43;5.85;;;;;;;15.85;56.74;100977.78;5005141;28;20369;-62
2021/11/20 10:44:25;;;;;;;8.75;5.18;;;;;;;15.87;56.27;100969.63;4999612;28;20453;-61
2021/11/20 10:47:01;;;;;;;6.53;4.57;;;;;;;15.96;56.56;100967.91;4998702;28;20081;-61
2021/11/20 10:49:45;;;;;;;8.00;5.10;;;;;;;16.03;56.16;100961.31;4998866;28;20022;-62
2021/11/20 10:52:35;;;;;;;7.72;5.07;;;;;;;16.17;56.09;100960.34;4997431;28;20050;-62
2021/11/20 10:55:14;;;;;;;10.07;6.53;;;;;;;16.38;55.03;100954.31;5002395;28;20021;-62
2021/11/20 10:57:41;;;;;;;12.68;4.68;;;;;;;16.49;54.94;100954.97;4999589;28;20300;-62
2021/11/20 11:00:57;;;;;;;5.93;4.82;;;;;;;16.54;54.50;100962.19;4998407;28;20057;-60
2021/11/20 11:03:28;;;;;;;12.60;5.47;;;;;;;16.61;54.06;100973.41;4997612;28;20038;-62
2021/11/20 11:06:18;;;;;;;6.63;4.97;;;;;;;16.68;53.46;100967.66;4998130;28;20489;-63
2021/11/20 11:08:48;;;;;;;6.70;5.18;;;;;;;16.81;53.88;100970.69;5008714;28;20396;-62
2021/11/20 11:11:33;;;;;;;8.55;5.60;;;;;;;16.93;53.52;100962.34;4999809;28;20448;-62
2021/11/20 11:14:01;;;;;;;8.13;5.47;;;;;;;17.02;51.96;100966.69;5006604;28;20026;-61
2021/11/20 11:17:10;;;;;;;9.23;5.63;;;;;;;17.14;52.94;100966.84;5017376;28;20034;-63
2021/11/20 11:19:49;;;;;;;10.32;5.95;;;;;;;17.25;51.93;100967.44;4981799;28;20046;-63
2021/11/20 11:22:29;;;;;;;8.10;5.03;;;;;;;17.41;51.24;100963.09;5016560;28;20038;-62
2021/11/20 11:25:10;;;;;;;10.95;5.55;;;;;;;17.60;50.67;100965.16;5015107;28;20022;-62
2021/11/20 11:28:06;;;;;;;6.55;4.45;;;;;;;17.73;50.62;100959.63;5016589;28;20076;-63
2021/11/20 11:31:01;;;;;;;5.72;4.32;;;;;;;17.93;51.36;100954.72;5001620;28;20101;-62
2021/11/20 11:33:32;;;;;;;12.07;5.63;;;;;;;18.08;50.00;100953.19;4997944;28;20062;-62
2021/11/20 11:36:09;;;;;;;8.63;5.25;;;;;;;18.15;49.23;100953.00;5012505;28;20025;-63
2021/11/20 11:39:14;;;;;;;6.00;4.72;;;;;;;18.22;50.12;100944.28;5014516;28;20361;-64